NCAR-RAP Real-Time Weather Data

Output produced by METARs form (10 April 2020  07:19 UTC)
found at http://weather.rap.ucar.edu/surface/
 
KRAP 100652Z AUTO 17013KT 10SM CLR M01/M10 A3003 RMK AO2 SLP188 T10111100 400831044
KRAP 100552Z AUTO 17009KT 10SM CLR M02/M10 A3006 RMK AO2 SLP203 T10221100 10061 21044 58020
KRAP 100452Z AUTO 19008KT 10SM CLR M04/M10 A3008 RMK AO2 SLP217 T10391100
KRAP 100352Z 15005KT 10SM CLR M03/M11 A3011 RMK AO2 SLP226 T10281106
KRAP 100252Z 13006KT 10SM CLR M03/M11 A3012 RMK AO2 SLP232 T10281106 55004
KRAP 100152Z 10007KT 10SM CLR M01/M11 A3011 RMK AO2 SLP230 T10111106
KRAP 100052Z 08008KT 10SM CLR 03/M11 A3013 RMK AO2 SLP230 T00331111
KRAP 092352Z 05009KT 10SM CLR 06/M12 A3014 RMK AO2 SLP228 T00611117 10083 20056 55008
KRAP 092252Z 02015G24KT 10SM CLR 07/M12 A3012 RMK AO2 PK WND 01032/2202 SLP221 T00721117
KRAP 092152Z 01017G24KT 10SM CLR 08/M13 A3014 RMK AO2 PK WND 36030/2103 SLP227 T00831128
KRAP 092052Z 36017G27KT 10SM CLR 08/M14 A3016 RMK AO2 PK WND 35032/2025 SLP235 T00781139 58017
KRAP 091952Z 36016G31KT 10SM CLR 07/M13 A3019 RMK AO2 PK WND 01031/1947 SLP246 T00721128
KRAP 091852Z 33020G28KT 10SM CLR 07/M14 A3021 RMK AO2 PK WND 35033/1838 SLP254 T00721139
KRAP 091752Z 35024G32KT 10SM CLR 06/M14 A3022 RMK AO2 PK WND 33033/1655 SLP259 T00561139 10061 21017 50002
KRAP 091652Z 34024G34KT 10SM CLR 04/M15 A3023 RMK AO2 PK WND 33035/1634 SLP263 T00441150
KRAP 091552Z 34023G32KT 10SM CLR 03/M12 A3021 RMK AO2 PK WND 34034/1511 SLP259 T00331117
KRAP 091452Z 34022G31KT 10SM CLR 01/M10 A3021 RMK AO2 PK WND 35032/1425 SLP260 T00111100 50019
KRAP 091352Z 35019G28KT 10SM CLR 00/M09 A3021 RMK AO2 PK WND 34031/1338 SLP256 T00001094
KRAP 091252Z 36018G26KT 10SM CLR M01/M08 A3017 RMK AO2 PK WND 36027/1237 SLP241 T10111083
KRAP 091152Z 35012G23KT 10SM CLR M01/M08 A3015 RMK AO2 SLP230 T10111083 10006 21039 53003
KRAP 091052Z AUTO 34011KT 10SM FEW100 M01/M08 A3013 RMK AO2 SLP223 T10111083
KRAP 090952Z AUTO 34009KT 10SM BKN100 M01/M08 A3014 RMK AO2 SLP222 T10061078